sensor_id;sensor_type;location;lat;lon;timestamp;temperature;humidity
34644;DHT22;26931;43.498;-1.506;2023-04-24T00:00:05;16.40;96.30
34644;DHT22;26931;43.498;-1.506;2023-04-24T00:02:32;16.30;96.30
34644;DHT22;26931;43.498;-1.506;2023-04-24T00:04:58;16.30;96.40
34644;DHT22;26931;43.498;-1.506;2023-04-24T00:07:28;16.30;96.50
34644;DHT22;26931;43.498;-1.506;2023-04-24T00:09:54;16.30;96.50
34644;DHT22;26931;43.498;-1.506;2023-04-24T00:12:20;16.30;96.40
34644;DHT22;26931;43.498;-1.506;2023-04-24T00:14:46;16.30;96.40
34644;DHT22;26931;43.498;-1.506;2023-04-24T00:17:12;16.30;96.30
34644;DHT22;26931;43.498;-1.506;2023-04-24T00:19:38;16.30;96.30
34644;DHT22;26931;43.498;-1.506;2023-04-24T00:22:04;16.30;96.20
34644;DHT22;26931;43.498;-1.506;2023-04-24T00:24:30;16.30;96.30
34644;DHT22;26931;43.498;-1.506;2023-04-24T00:26:55;16.30;96.20
34644;DHT22;26931;43.498;-1.506;2023-04-24T00:29:21;16.30;96.20
34644;DHT22;26931;43.498;-1.506;2023-04-24T00:31:47;16.30;96.20
34644;DHT22;26931;43.498;-1.506;2023-04-24T00:34:13;16.30;96.20
34644;DHT22;26931;43.498;-1.506;2023-04-24T00:36:40;16.30;96.20
34644;DHT22;26931;43.498;-1.506;2023-04-24T00:39:06;16.20;96.10
34644;DHT22;26931;43.498;-1.506;2023-04-24T00:41:34;16.30;96.10
34644;DHT22;26931;43.498;-1.506;2023-04-24T00:44:00;16.30;96.10
34644;DHT22;26931;43.498;-1.506;2023-04-24T00:46:26;16.20;96.10
34644;DHT22;26931;43.498;-1.506;2023-04-24T00:48:52;16.30;96.10
34644;DHT22;26931;43.498;-1.506;2023-04-24T00:51:18;16.30;96.10
34644;DHT22;26931;43.498;-1.506;2023-04-24T00:53:43;16.30;96.10
34644;DHT22;26931;43.498;-1.506;2023-04-24T00:56:09;16.30;96.10
34644;DHT22;26931;43.498;-1.506;2023-04-24T00:58:36;16.30;96.10
34644;DHT22;26931;43.498;-1.506;2023-04-24T01:01:02;16.30;96.10
34644;DHT22;26931;43.498;-1.506;2023-04-24T01:03:29;16.30;96.00
34644;DHT22;26931;43.498;-1.506;2023-04-24T01:05:57;16.30;96.00
34644;DHT22;26931;43.498;-1.506;2023-04-24T01:08:24;16.30;96.00
34644;DHT22;26931;43.498;-1.506;2023-04-24T01:10:54;16.30;96.10
34644;DHT22;26931;43.498;-1.506;2023-04-24T01:13:20;16.30;96.20
34644;DHT22;26931;43.498;-1.506;2023-04-24T01:15:47;16.30;96.30
34644;DHT22;26931;43.498;-1.506;2023-04-24T01:18:13;16.30;96.30
34644;DHT22;26931;43.498;-1.506;2023-04-24T01:20:40;16.30;96.30
34644;DHT22;26931;43.498;-1.506;2023-04-24T01:23:08;16.30;96.40
34644;DHT22;26931;43.498;-1.506;2023-04-24T01:25:34;16.30;96.40
34644;DHT22;26931;43.498;-1.506;2023-04-24T01:28:00;16.30;96.40
34644;DHT22;26931;43.498;-1.506;2023-04-24T01:30:27;16.30;96.40
34644;DHT22;26931;43.498;-1.506;2023-04-24T01:32:53;16.30;96.40
34644;DHT22;26931;43.498;-1.506;2023-04-24T01:35:20;16.30;96.30
34644;DHT22;26931;43.498;-1.506;2023-04-24T01:37:46;16.30;96.20
34644;DHT22;26931;43.498;-1.506;2023-04-24T01:40:12;16.30;96.10
34644;DHT22;26931;43.498;-1.506;2023-04-24T01:42:37;16.30;96.00
34644;DHT22;26931;43.498;-1.506;2023-04-24T01:45:04;16.30;95.90
34644;DHT22;26931;43.498;-1.506;2023-04-24T01:47:31;16.30;95.80
34644;DHT22;26931;43.498;-1.506;2023-04-24T01:49:58;16.30;95.70
34644;DHT22;26931;43.498;-1.506;2023-04-24T01:52:24;16.30;95.60
34644;DHT22;26931;43.498;-1.506;2023-04-24T01:54:50;16.30;95.60
34644;DHT22;26931;43.498;-1.506;2023-04-24T01:57:16;16.30;95.50
34644;DHT22;26931;43.498;-1.506;2023-04-24T01:59:42;16.30;95.50
34644;DHT22;26931;43.498;-1.506;2023-04-24T02:02:08;16.30;95.40
34644;DHT22;26931;43.498;-1.506;2023-04-24T02:04:34;16.40;95.40
34644;DHT22;26931;43.498;-1.506;2023-04-24T02:07:00;16.40;95.40
34644;DHT22;26931;43.498;-1.506;2023-04-24T02:09:25;16.40;95.30
34644;DHT22;26931;43.498;-1.506;2023-04-24T02:11:51;16.20;95.20
34644;DHT22;26931;43.498;-1.506;2023-04-24T02:14:17;16.30;95.20
34644;DHT22;26931;43.498;-1.506;2023-04-24T02:16:43;16.40;95.20
34644;DHT22;26931;43.498;-1.506;2023-04-24T02:19:09;16.30;95.10
34644;DHT22;26931;43.498;-1.506;2023-04-24T02:21:35;16.30;95.00
34644;DHT22;26931;43.498;-1.506;2023-04-24T02:24:01;16.30;94.90
34644;DHT22;26931;43.498;-1.506;2023-04-24T02:26:27;16.30;94.90
34644;DHT22;26931;43.498;-1.506;2023-04-24T02:28:53;16.30;94.80
34644;DHT22;26931;43.498;-1.506;2023-04-24T02:31:19;16.30;94.80
34644;DHT22;26931;43.498;-1.506;2023-04-24T02:33:44;16.30;94.70
34644;DHT22;26931;43.498;-1.506;2023-04-24T02:36:10;16.20;94.70
34644;DHT22;26931;43.498;-1.506;2023-04-24T02:38:36;16.20;94.70
34644;DHT22;26931;43.498;-1.506;2023-04-24T02:41:01;16.20;94.60
34644;DHT22;26931;43.498;-1.506;2023-04-24T02:43:31;16.20;94.60
34644;DHT22;26931;43.498;-1.506;2023-04-24T02:45:57;16.20;94.60
34644;DHT22;26931;43.498;-1.506;2023-04-24T02:48:23;16.20;94.50
34644;DHT22;26931;43.498;-1.506;2023-04-24T02:50:49;16.20;94.50
34644;DHT22;26931;43.498;-1.506;2023-04-24T02:53:16;16.10;94.50
34644;DHT22;26931;43.498;-1.506;2023-04-24T02:55:41;16.20;94.50
34644;DHT22;26931;43.498;-1.506;2023-04-24T02:58:07;16.20;94.50
34644;DHT22;26931;43.498;-1.506;2023-04-24T03:00:33;16.20;94.50
34644;DHT22;26931;43.498;-1.506;2023-04-24T03:03:00;16.20;94.40
34644;DHT22;26931;43.498;-1.506;2023-04-24T03:05:25;16.10;94.30
34644;DHT22;26931;43.498;-1.506;2023-04-24T03:07:52;16.10;94.30
34644;DHT22;26931;43.498;-1.506;2023-04-24T03:10:18;16.10;94.30
34644;DHT22;26931;43.498;-1.506;2023-04-24T03:12:44;16.10;94.30
34644;DHT22;26931;43.498;-1.506;2023-04-24T03:15:10;16.10;94.20
34644;DHT22;26931;43.498;-1.506;2023-04-24T03:17:35;16.10;94.20
34644;DHT22;26931;43.498;-1.506;2023-04-24T03:20:02;16.10;94.20
34644;DHT22;26931;43.498;-1.506;2023-04-24T03:22:30;16.10;94.10
34644;DHT22;26931;43.498;-1.506;2023-04-24T03:24:58;16.10;94.10
34644;DHT22;26931;43.498;-1.506;2023-04-24T03:27:23;16.10;94.40
34644;DHT22;26931;43.498;-1.506;2023-04-24T03:29:49;16.10;94.00
34644;DHT22;26931;43.498;-1.506;2023-04-24T03:32:19;16.10;94.40
34644;DHT22;26931;43.498;-1.506;2023-04-24T03:34:45;16.10;94.00
34644;DHT22;26931;43.498;-1.506;2023-04-24T03:37:11;16.10;94.10
34644;DHT22;26931;43.498;-1.506;2023-04-24T03:39:36;16.10;94.00
34644;DHT22;26931;43.498;-1.506;2023-04-24T03:42:02;16.10;94.00
34644;DHT22;26931;43.498;-1.506;2023-04-24T03:44:28;16.10;94.10
34644;DHT22;26931;43.498;-1.506;2023-04-24T03:46:54;16.00;94.10
34644;DHT22;26931;43.498;-1.506;2023-04-24T03:49:19;16.10;94.10
34644;DHT22;26931;43.498;-1.506;2023-04-24T03:51:45;16.00;94.10
34644;DHT22;26931;43.498;-1.506;2023-04-24T03:54:11;16.00;94.20
34644;DHT22;26931;43.498;-1.506;2023-04-24T03:56:37;16.00;94.20
34644;DHT22;26931;43.498;-1.506;2023-04-24T03:59:03;16.00;94.20
34644;DHT22;26931;43.498;-1.506;2023-04-24T04:01:28;16.00;94.30
34644;DHT22;26931;43.498;-1.506;2023-04-24T04:03:54;16.00;94.30
34644;DHT22;26931;43.498;-1.506;2023-04-24T04:06:20;16.00;94.30
34644;DHT22;26931;43.498;-1.506;2023-04-24T04:08:46;16.00;94.30
34644;DHT22;26931;43.498;-1.506;2023-04-24T04:11:12;16.00;94.30
34644;DHT22;26931;43.498;-1.506;2023-04-24T04:13:38;15.90;94.30
34644;DHT22;26931;43.498;-1.506;2023-04-24T04:16:04;16.00;94.30
34644;DHT22;26931;43.498;-1.506;2023-04-24T04:18:30;15.90;94.20
34644;DHT22;26931;43.498;-1.506;2023-04-24T04:20:56;15.90;94.20
34644;DHT22;26931;43.498;-1.506;2023-04-24T04:23:22;15.80;94.20
34644;DHT22;26931;43.498;-1.506;2023-04-24T04:25:48;15.80;94.20
34644;DHT22;26931;43.498;-1.506;2023-04-24T04:28:15;15.80;94.20
34644;DHT22;26931;43.498;-1.506;2023-04-24T04:30:41;15.70;94.10
34644;DHT22;26931;43.498;-1.506;2023-04-24T04:33:06;15.70;94.10
34644;DHT22;26931;43.498;-1.506;2023-04-24T04:35:33;15.70;94.20
34644;DHT22;26931;43.498;-1.506;2023-04-24T04:37:59;15.70;94.20
34644;DHT22;26931;43.498;-1.506;2023-04-24T04:40:26;15.70;94.10
34644;DHT22;26931;43.498;-1.506;2023-04-24T04:42:52;15.60;94.10
34644;DHT22;26931;43.498;-1.506;2023-04-24T04:45:19;15.60;94.10
34644;DHT22;26931;43.498;-1.506;2023-04-24T04:47:46;15.60;94.10
34644;DHT22;26931;43.498;-1.506;2023-04-24T04:50:12;15.60;94.10
34644;DHT22;26931;43.498;-1.506;2023-04-24T04:52:37;15.60;94.10
34644;DHT22;26931;43.498;-1.506;2023-04-24T04:55:04;15.50;94.10
34644;DHT22;26931;43.498;-1.506;2023-04-24T04:57:30;15.50;94.00
34644;DHT22;26931;43.498;-1.506;2023-04-24T04:59:56;15.60;94.00
34644;DHT22;26931;43.498;-1.506;2023-04-24T05:02:22;15.60;94.00
34644;DHT22;26931;43.498;-1.506;2023-04-24T05:04:47;15.50;94.00
34644;DHT22;26931;43.498;-1.506;2023-04-24T05:07:13;15.60;94.00
34644;DHT22;26931;43.498;-1.506;2023-04-24T05:09:39;15.50;94.00
34644;DHT22;26931;43.498;-1.506;2023-04-24T05:12:05;15.60;94.00
34644;DHT22;26931;43.498;-1.506;2023-04-24T05:14:31;15.60;93.90
34644;DHT22;26931;43.498;-1.506;2023-04-24T05:16:56;15.60;93.90
34644;DHT22;26931;43.498;-1.506;2023-04-24T05:19:22;15.60;93.90
34644;DHT22;26931;43.498;-1.506;2023-04-24T05:21:48;15.60;93.90
34644;DHT22;26931;43.498;-1.506;2023-04-24T05:24:14;15.50;93.80
34644;DHT22;26931;43.498;-1.506;2023-04-24T05:26:39;15.60;93.80
34644;DHT22;26931;43.498;-1.506;2023-04-24T05:29:05;15.60;93.80
34644;DHT22;26931;43.498;-1.506;2023-04-24T05:31:31;15.60;93.80
34644;DHT22;26931;43.498;-1.506;2023-04-24T05:33:57;15.60;93.80
34644;DHT22;26931;43.498;-1.506;2023-04-24T05:36:23;15.60;93.80
34644;DHT22;26931;43.498;-1.506;2023-04-24T05:38:48;15.60;93.80
34644;DHT22;26931;43.498;-1.506;2023-04-24T05:41:14;15.60;93.90
34644;DHT22;26931;43.498;-1.506;2023-04-24T05:43:40;15.70;94.20
34644;DHT22;26931;43.498;-1.506;2023-04-24T05:46:06;15.60;93.90
34644;DHT22;26931;43.498;-1.506;2023-04-24T05:48:31;15.70;93.90
34644;DHT22;26931;43.498;-1.506;2023-04-24T05:50:57;15.70;93.90
34644;DHT22;26931;43.498;-1.506;2023-04-24T05:53:23;15.70;93.90
34644;DHT22;26931;43.498;-1.506;2023-04-24T05:55:49;15.70;93.90
34644;DHT22;26931;43.498;-1.506;2023-04-24T05:58:15;15.70;93.90
34644;DHT22;26931;43.498;-1.506;2023-04-24T06:00:40;15.70;94.00
34644;DHT22;26931;43.498;-1.506;2023-04-24T06:03:08;15.70;94.00
34644;DHT22;26931;43.498;-1.506;2023-04-24T06:05:34;15.70;93.90
34644;DHT22;26931;43.498;-1.506;2023-04-24T06:08:00;15.80;94.00
34644;DHT22;26931;43.498;-1.506;2023-04-24T06:10:26;15.80;93.90
34644;DHT22;26931;43.498;-1.506;2023-04-24T06:12:51;15.80;94.00
34644;DHT22;26931;43.498;-1.506;2023-04-24T06:15:17;15.90;94.00
34644;DHT22;26931;43.498;-1.506;2023-04-24T06:17:44;15.90;94.00
34644;DHT22;26931;43.498;-1.506;2023-04-24T06:20:10;15.90;93.90
34644;DHT22;26931;43.498;-1.506;2023-04-24T06:22:37;15.90;93.90
34644;DHT22;26931;43.498;-1.506;2023-04-24T06:25:03;15.90;93.90
34644;DHT22;26931;43.498;-1.506;2023-04-24T06:27:30;16.00;93.80
34644;DHT22;26931;43.498;-1.506;2023-04-24T06:29:56;16.00;93.80
34644;DHT22;26931;43.498;-1.506;2023-04-24T06:32:23;16.20;93.80
34644;DHT22;26931;43.498;-1.506;2023-04-24T06:34:50;16.00;93.90
34644;DHT22;26931;43.498;-1.506;2023-04-24T06:37:16;16.10;94.00
34644;DHT22;26931;43.498;-1.506;2023-04-24T06:39:43;16.10;94.00
34644;DHT22;26931;43.498;-1.506;2023-04-24T06:42:09;16.20;94.00
34644;DHT22;26931;43.498;-1.506;2023-04-24T06:44:35;16.20;94.00
34644;DHT22;26931;43.498;-1.506;2023-04-24T06:47:07;16.20;94.00
34644;DHT22;26931;43.498;-1.506;2023-04-24T06:49:34;16.30;94.00
34644;DHT22;26931;43.498;-1.506;2023-04-24T06:52:00;16.30;93.90
34644;DHT22;26931;43.498;-1.506;2023-04-24T06:54:26;16.30;93.90
34644;DHT22;26931;43.498;-1.506;2023-04-24T06:56:52;16.30;93.80
34644;DHT22;26931;43.498;-1.506;2023-04-24T06:59:19;16.40;93.80
34644;DHT22;26931;43.498;-1.506;2023-04-24T07:01:45;16.40;93.60
34644;DHT22;26931;43.498;-1.506;2023-04-24T07:04:11;16.40;93.50
34644;DHT22;26931;43.498;-1.506;2023-04-24T07:06:38;16.40;93.40
34644;DHT22;26931;43.498;-1.506;2023-04-24T07:09:04;16.50;93.30
34644;DHT22;26931;43.498;-1.506;2023-04-24T07:11:30;16.40;93.00
34644;DHT22;26931;43.498;-1.506;2023-04-24T07:13:57;16.40;92.90
34644;DHT22;26931;43.498;-1.506;2023-04-24T07:16:22;16.40;92.80
34644;DHT22;26931;43.498;-1.506;2023-04-24T07:18:48;16.50;92.80
34644;DHT22;26931;43.498;-1.506;2023-04-24T07:21:14;16.70;92.70
34644;DHT22;26931;43.498;-1.506;2023-04-24T07:23:41;16.50;92.50
34644;DHT22;26931;43.498;-1.506;2023-04-24T07:26:07;16.60;92.40
34644;DHT22;26931;43.498;-1.506;2023-04-24T07:28:33;16.60;92.30
34644;DHT22;26931;43.498;-1.506;2023-04-24T07:30:59;16.70;92.20
34644;DHT22;26931;43.498;-1.506;2023-04-24T07:33:26;16.70;92.10
34644;DHT22;26931;43.498;-1.506;2023-04-24T07:35:52;16.70;92.00
34644;DHT22;26931;43.498;-1.506;2023-04-24T07:38:18;16.80;91.90
34644;DHT22;26931;43.498;-1.506;2023-04-24T07:40:48;16.80;91.90
34644;DHT22;26931;43.498;-1.506;2023-04-24T07:43:15;16.90;91.80
34644;DHT22;26931;43.498;-1.506;2023-04-24T07:45:41;16.90;91.80
34644;DHT22;26931;43.498;-1.506;2023-04-24T07:48:06;17.00;91.70
34644;DHT22;26931;43.498;-1.506;2023-04-24T07:50:34;16.90;91.60
34644;DHT22;26931;43.498;-1.506;2023-04-24T07:53:01;16.90;91.60
34644;DHT22;26931;43.498;-1.506;2023-04-24T07:55:27;17.00;91.50
34644;DHT22;26931;43.498;-1.506;2023-04-24T07:57:52;17.00;91.50
34644;DHT22;26931;43.498;-1.506;2023-04-24T08:00:19;17.00;91.40
34644;DHT22;26931;43.498;-1.506;2023-04-24T08:02:45;17.10;91.40
34644;DHT22;26931;43.498;-1.506;2023-04-24T08:05:11;17.20;91.20
34644;DHT22;26931;43.498;-1.506;2023-04-24T08:07:38;17.10;91.10
34644;DHT22;26931;43.498;-1.506;2023-04-24T08:10:04;17.30;91.10
34644;DHT22;26931;43.498;-1.506;2023-04-24T08:12:30;17.40;90.90
34644;DHT22;26931;43.498;-1.506;2023-04-24T08:14:56;17.50;90.60
34644;DHT22;26931;43.498;-1.506;2023-04-24T08:17:22;17.60;90.40
34644;DHT22;26931;43.498;-1.506;2023-04-24T08:19:48;17.70;90.20
34644;DHT22;26931;43.498;-1.506;2023-04-24T08:22:15;17.80;90.00
34644;DHT22;26931;43.498;-1.506;2023-04-24T08:24:40;17.90;89.90
34644;DHT22;26931;43.498;-1.506;2023-04-24T08:27:06;18.00;89.80
34644;DHT22;26931;43.498;-1.506;2023-04-24T08:29:32;18.10;89.40
34644;DHT22;26931;43.498;-1.506;2023-04-24T08:31:58;18.20;88.80
34644;DHT22;26931;43.498;-1.506;2023-04-24T08:34:24;18.40;88.80
34644;DHT22;26931;43.498;-1.506;2023-04-24T08:36:50;18.40;88.60
34644;DHT22;26931;43.498;-1.506;2023-04-24T08:39:17;18.40;88.60
34644;DHT22;26931;43.498;-1.506;2023-04-24T08:41:43;18.60;88.30
34644;DHT22;26931;43.498;-1.506;2023-04-24T08:44:12;18.70;87.90
34644;DHT22;26931;43.498;-1.506;2023-04-24T08:46:43;18.90;87.60
34644;DHT22;26931;43.498;-1.506;2023-04-24T08:49:14;19.00;87.10
34644;DHT22;26931;43.498;-1.506;2023-04-24T08:51:42;19.30;86.50
34644;DHT22;26931;43.498;-1.506;2023-04-24T08:54:08;19.10;85.60
34644;DHT22;26931;43.498;-1.506;2023-04-24T08:56:37;19.40;85.00
34644;DHT22;26931;43.498;-1.506;2023-04-24T08:59:06;19.50;84.50
34644;DHT22;26931;43.498;-1.506;2023-04-24T09:01:32;19.50;84.00
34644;DHT22;26931;43.498;-1.506;2023-04-24T09:04:02;19.50;83.60
34644;DHT22;26931;43.498;-1.506;2023-04-24T09:06:28;19.50;83.20
34644;DHT22;26931;43.498;-1.506;2023-04-24T09:08:55;19.50;83.90
34644;DHT22;26931;43.498;-1.506;2023-04-24T09:11:23;19.50;83.20
34644;DHT22;26931;43.498;-1.506;2023-04-24T09:13:52;19.60;83.20
34644;DHT22;26931;43.498;-1.506;2023-04-24T09:16:19;19.60;83.30
34644;DHT22;26931;43.498;-1.506;2023-04-24T09:18:46;19.60;83.20
34644;DHT22;26931;43.498;-1.506;2023-04-24T09:21:12;19.60;83.00
34644;DHT22;26931;43.498;-1.506;2023-04-24T09:23:38;19.60;82.80
34644;DHT22;26931;43.498;-1.506;2023-04-24T09:26:04;19.50;82.60
34644;DHT22;26931;43.498;-1.506;2023-04-24T09:28:38;19.40;82.60
34644;DHT22;26931;43.498;-1.506;2023-04-24T09:31:14;19.40;82.30
34644;DHT22;26931;43.498;-1.506;2023-04-24T09:33:58;19.50;82.20
34644;DHT22;26931;43.498;-1.506;2023-04-24T09:38:58;19.30;81.90
34644;DHT22;26931;43.498;-1.506;2023-04-24T09:41:26;19.30;81.60
34644;DHT22;26931;43.498;-1.506;2023-04-24T09:43:54;19.20;81.80
34644;DHT22;26931;43.498;-1.506;2023-04-24T09:46:21;19.10;81.90
34644;DHT22;26931;43.498;-1.506;2023-04-24T09:48:49;19.10;81.70
34644;DHT22;26931;43.498;-1.506;2023-04-24T09:51:15;19.10;81.70
34644;DHT22;26931;43.498;-1.506;2023-04-24T09:53:46;19.10;81.70
34644;DHT22;26931;43.498;-1.506;2023-04-24T09:56:12;19.10;81.90
34644;DHT22;26931;43.498;-1.506;2023-04-24T09:58:38;19.10;82.10
34644;DHT22;26931;43.498;-1.506;2023-04-24T10:01:05;19.10;82.30
34644;DHT22;26931;43.498;-1.506;2023-04-24T10:03:32;19.30;82.60
34644;DHT22;26931;43.498;-1.506;2023-04-24T10:06:02;19.10;82.50
34644;DHT22;26931;43.498;-1.506;2023-04-24T10:08:35;19.20;82.50
34644;DHT22;26931;43.498;-1.506;2023-04-24T10:11:01;19.20;82.50
34644;DHT22;26931;43.498;-1.506;2023-04-24T10:13:28;19.00;82.40
34644;DHT22;26931;43.498;-1.506;2023-04-24T10:16:00;19.20;82.60
34644;DHT22;26931;43.498;-1.506;2023-04-24T10:18:27;19.20;82.50
34644;DHT22;26931;43.498;-1.506;2023-04-24T10:20:53;19.40;82.50
34644;DHT22;26931;43.498;-1.506;2023-04-24T10:23:20;19.20;82.40
34644;DHT22;26931;43.498;-1.506;2023-04-24T10:25:46;19.30;82.50
34644;DHT22;26931;43.498;-1.506;2023-04-24T10:28:12;19.30;82.70
34644;DHT22;26931;43.498;-1.506;2023-04-24T10:30:39;19.30;82.70
34644;DHT22;26931;43.498;-1.506;2023-04-24T10:33:08;19.30;82.60
34644;DHT22;26931;43.498;-1.506;2023-04-24T10:35:39;19.30;82.50
34644;DHT22;26931;43.498;-1.506;2023-04-24T10:38:13;19.50;82.70
34644;DHT22;26931;43.498;-1.506;2023-04-24T10:40:40;19.30;82.60
34644;DHT22;26931;43.498;-1.506;2023-04-24T10:43:08;19.40;82.70
34644;DHT22;26931;43.498;-1.506;2023-04-24T10:45:37;19.40;82.50
34644;DHT22;26931;43.498;-1.506;2023-04-24T10:48:04;19.40;82.20
34644;DHT22;26931;43.498;-1.506;2023-04-24T10:50:46;19.50;82.90
34644;DHT22;26931;43.498;-1.506;2023-04-24T10:53:16;19.40;81.90
34644;DHT22;26931;43.498;-1.506;2023-04-24T10:55:48;19.40;82.00
34644;DHT22;26931;43.498;-1.506;2023-04-24T10:58:15;19.60;82.10
34644;DHT22;26931;43.498;-1.506;2023-04-24T11:00:42;19.60;81.90
34644;DHT22;26931;43.498;-1.506;2023-04-24T11:03:24;19.60;81.70
34644;DHT22;26931;43.498;-1.506;2023-04-24T11:06:05;19.60;81.30
34644;DHT22;26931;43.498;-1.506;2023-04-24T11:08:38;19.50;81.30
34644;DHT22;26931;43.498;-1.506;2023-04-24T11:11:13;19.50;81.60
34644;DHT22;26931;43.498;-1.506;2023-04-24T11:19:26;19.40;82.30
34644;DHT22;26931;43.498;-1.506;2023-04-24T11:22:02;19.40;82.60
34644;DHT22;26931;43.498;-1.506;2023-04-24T11:27:06;19.40;83.40
34644;DHT22;26931;43.498;-1.506;2023-04-24T11:32:40;19.50;85.20
34644;DHT22;26931;43.498;-1.506;2023-04-24T11:35:18;19.40;84.80
34644;DHT22;26931;43.498;-1.506;2023-04-24T11:37:49;19.20;84.90
34644;DHT22;26931;43.498;-1.506;2023-04-24T11:40:16;19.20;85.10
34644;DHT22;26931;43.498;-1.506;2023-04-24T11:42:47;19.20;85.20
34644;DHT22;26931;43.498;-1.506;2023-04-24T11:45:14;19.10;85.10
34644;DHT22;26931;43.498;-1.506;2023-04-24T11:47:41;19.30;85.00
34644;DHT22;26931;43.498;-1.506;2023-04-24T11:50:10;19.20;84.90
34644;DHT22;26931;43.498;-1.506;2023-04-24T11:52:38;19.20;84.80
34644;DHT22;26931;43.498;-1.506;2023-04-24T11:55:06;19.20;84.90
34644;DHT22;26931;43.498;-1.506;2023-04-24T11:57:32;19.40;85.20
34644;DHT22;26931;43.498;-1.506;2023-04-24T12:00:03;19.20;85.00
34644;DHT22;26931;43.498;-1.506;2023-04-24T12:02:30;19.30;85.00
34644;DHT22;26931;43.498;-1.506;2023-04-24T12:04:57;19.30;85.00
34644;DHT22;26931;43.498;-1.506;2023-04-24T12:07:23;19.30;84.80
34644;DHT22;26931;43.498;-1.506;2023-04-24T12:09:59;19.30;84.80
34644;DHT22;26931;43.498;-1.506;2023-04-24T12:12:27;19.40;85.10
34644;DHT22;26931;43.498;-1.506;2023-04-24T12:17:33;19.20;85.70
34644;DHT22;26931;43.498;-1.506;2023-04-24T12:20:02;19.00;85.90
34644;DHT22;26931;43.498;-1.506;2023-04-24T12:22:53;19.10;86.30
34644;DHT22;26931;43.498;-1.506;2023-04-24T12:25:22;19.10;86.70
34644;DHT22;26931;43.498;-1.506;2023-04-24T12:28:08;19.20;86.70
34644;DHT22;26931;43.498;-1.506;2023-04-24T12:30:44;19.10;86.70
34644;DHT22;26931;43.498;-1.506;2023-04-24T12:33:10;19.10;86.60
34644;DHT22;26931;43.498;-1.506;2023-04-24T12:35:36;19.10;86.30
34644;DHT22;26931;43.498;-1.506;2023-04-24T12:38:12;19.10;86.30
34644;DHT22;26931;43.498;-1.506;2023-04-24T12:40:40;19.10;86.30
34644;DHT22;26931;43.498;-1.506;2023-04-24T12:43:14;19.00;86.40
34644;DHT22;26931;43.498;-1.506;2023-04-24T12:45:41;19.00;86.50
34644;DHT22;26931;43.498;-1.506;2023-04-24T12:48:07;19.00;86.60
34644;DHT22;26931;43.498;-1.506;2023-04-24T12:50:32;19.00;86.80
34644;DHT22;26931;43.498;-1.506;2023-04-24T12:52:58;19.10;87.10
34644;DHT22;26931;43.498;-1.506;2023-04-24T12:55:24;19.00;87.20
34644;DHT22;26931;43.498;-1.506;2023-04-24T12:57:50;19.00;87.50
34644;DHT22;26931;43.498;-1.506;2023-04-24T13:00:16;19.00;87.60
34644;DHT22;26931;43.498;-1.506;2023-04-24T13:02:42;19.20;87.80
34644;DHT22;26931;43.498;-1.506;2023-04-24T13:05:08;19.10;87.80
34644;DHT22;26931;43.498;-1.506;2023-04-24T13:07:34;19.10;87.60
34644;DHT22;26931;43.498;-1.506;2023-04-24T13:10:00;19.00;87.50
34644;DHT22;26931;43.498;-1.506;2023-04-24T13:12:26;19.00;87.70
34644;DHT22;26931;43.498;-1.506;2023-04-24T13:14:53;19.10;87.90
34644;DHT22;26931;43.498;-1.506;2023-04-24T13:17:19;19.00;87.90
34644;DHT22;26931;43.498;-1.506;2023-04-24T13:19:45;19.00;88.00
34644;DHT22;26931;43.498;-1.506;2023-04-24T13:22:11;19.00;88.00
34644;DHT22;26931;43.498;-1.506;2023-04-24T13:24:38;19.00;88.10
34644;DHT22;26931;43.498;-1.506;2023-04-24T13:27:06;19.10;88.20
34644;DHT22;26931;43.498;-1.506;2023-04-24T13:29:32;19.00;88.30
34644;DHT22;26931;43.498;-1.506;2023-04-24T13:31:58;19.00;88.30
34644;DHT22;26931;43.498;-1.506;2023-04-24T13:34:25;19.00;88.50
34644;DHT22;26931;43.498;-1.506;2023-04-24T13:36:53;19.00;88.40
34644;DHT22;26931;43.498;-1.506;2023-04-24T13:39:20;19.10;88.50
34644;DHT22;26931;43.498;-1.506;2023-04-24T13:41:46;18.90;88.20
34644;DHT22;26931;43.498;-1.506;2023-04-24T13:44:16;19.00;88.10
34644;DHT22;26931;43.498;-1.506;2023-04-24T13:46:43;18.90;87.90
34644;DHT22;26931;43.498;-1.506;2023-04-24T13:49:11;18.90;87.80
34644;DHT22;26931;43.498;-1.506;2023-04-24T13:51:37;19.00;88.00
34644;DHT22;26931;43.498;-1.506;2023-04-24T13:54:03;19.00;88.00
34644;DHT22;26931;43.498;-1.506;2023-04-24T13:56:29;19.00;87.90
34644;DHT22;26931;43.498;-1.506;2023-04-24T13:58:56;19.00;87.70
34644;DHT22;26931;43.498;-1.506;2023-04-24T14:01:22;19.00;87.40
34644;DHT22;26931;43.498;-1.506;2023-04-24T14:03:51;19.00;87.00
34644;DHT22;26931;43.498;-1.506;2023-04-24T14:06:19;19.00;86.70
34644;DHT22;26931;43.498;-1.506;2023-04-24T14:08:45;19.00;86.60
34644;DHT22;26931;43.498;-1.506;2023-04-24T14:11:11;19.00;86.40
34644;DHT22;26931;43.498;-1.506;2023-04-24T14:13:38;19.20;86.10
34644;DHT22;26931;43.498;-1.506;2023-04-24T14:16:04;19.00;85.80
34644;DHT22;26931;43.498;-1.506;2023-04-24T14:18:30;19.00;85.70
34644;DHT22;26931;43.498;-1.506;2023-04-24T14:20:56;19.00;85.60
34644;DHT22;26931;43.498;-1.506;2023-04-24T14:23:22;18.90;85.50
34644;DHT22;26931;43.498;-1.506;2023-04-24T14:25:48;18.90;85.60
34644;DHT22;26931;43.498;-1.506;2023-04-24T14:28:18;18.90;85.50
34644;DHT22;26931;43.498;-1.506;2023-04-24T14:30:44;19.00;85.50
34644;DHT22;26931;43.498;-1.506;2023-04-24T14:33:10;19.00;85.30
34644;DHT22;26931;43.498;-1.506;2023-04-24T14:35:37;19.00;85.20
34644;DHT22;26931;43.498;-1.506;2023-04-24T14:38:03;19.00;85.10
34644;DHT22;26931;43.498;-1.506;2023-04-24T14:40:29;18.90;85.10
34644;DHT22;26931;43.498;-1.506;2023-04-24T14:42:55;19.00;85.30
34644;DHT22;26931;43.498;-1.506;2023-04-24T14:45:22;19.00;85.40
34644;DHT22;26931;43.498;-1.506;2023-04-24T14:47:48;19.00;85.50
34644;DHT22;26931;43.498;-1.506;2023-04-24T14:50:13;19.00;85.70
34644;DHT22;26931;43.498;-1.506;2023-04-24T14:52:39;18.90;85.70
34644;DHT22;26931;43.498;-1.506;2023-04-24T14:55:05;19.00;86.00
34644;DHT22;26931;43.498;-1.506;2023-04-24T14:57:35;18.90;86.20
34644;DHT22;26931;43.498;-1.506;2023-04-24T15:00:02;19.00;86.60
34644;DHT22;26931;43.498;-1.506;2023-04-24T15:02:29;19.00;86.80
34644;DHT22;26931;43.498;-1.506;2023-04-24T15:04:54;18.90;86.70
34644;DHT22;26931;43.498;-1.506;2023-04-24T15:07:21;19.00;86.70
34644;DHT22;26931;43.498;-1.506;2023-04-24T15:09:47;18.90;86.70
34644;DHT22;26931;43.498;-1.506;2023-04-24T15:12:13;18.90;86.70
34644;DHT22;26931;43.498;-1.506;2023-04-24T15:14:40;18.90;86.80
34644;DHT22;26931;43.498;-1.506;2023-04-24T15:17:05;18.90;87.00
34644;DHT22;26931;43.498;-1.506;2023-04-24T15:19:31;18.90;87.20
34644;DHT22;26931;43.498;-1.506;2023-04-24T15:21:57;19.10;87.40
34644;DHT22;26931;43.498;-1.506;2023-04-24T15:24:23;18.90;87.20
34644;DHT22;26931;43.498;-1.506;2023-04-24T15:26:50;18.90;87.20
34644;DHT22;26931;43.498;-1.506;2023-04-24T15:29:16;18.80;87.10